Time;durP1;ratioP1;P1;durP2;ratioP2;P2;SDS_P1;SDS_P2;PMS_P1;PMS_P2;Temp;Humidity;BMP_temperature;BMP_pressure;BME280_temperature;BME280_humidity;BME280_pressure;Samples;Min_cycle;Max_cycle;Signal;HPM_P1;HPM_P2
2023/07/07 00:02:16;;;;;;;;;;;20.50;58.90;;;;;;5090975;28;19920;-59
2023/07/07 00:04:41;;;;;;;;;;;20.40;58.90;;;;;;5092484;28;19969;-59
2023/07/07 00:07:07;;;;;;;;;;;20.40;58.90;;;;;;5092503;28;19920;-59
2023/07/07 00:09:32;;;;;;;;;;;20.40;58.90;;;;;;5092545;28;19927;-59
2023/07/07 00:12:00;;;;;;;;;;;20.40;58.90;;;;;;5091043;28;19920;-58
2023/07/07 00:14:25;;;;;;;;;;;20.40;58.90;;;;;;5092349;28;20293;-59
2023/07/07 00:16:51;;;;;;;;;;;20.40;58.90;;;;;;5091391;28;19920;-59
2023/07/07 00:19:16;;;;;;;;;;;20.40;58.90;;;;;;5090890;28;20400;-59
2023/07/07 00:21:42;;;;;;;;;;;20.40;58.90;;;;;;5091021;28;19920;-59
2023/07/07 00:24:10;;;;;;;;;;;20.40;58.90;;;;;;5092103;28;20006;-59
2023/07/07 00:26:36;;;;;;;;;;;20.30;58.90;;;;;;5091254;28;20038;-59
2023/07/07 00:29:02;;;;;;;;;;;20.30;58.90;;;;;;5092122;28;20038;-59
2023/07/07 00:31:27;;;;;;;;;;;20.30;58.90;;;;;;5091269;28;20068;-59
2023/07/07 00:33:53;;;;;;;;;;;20.30;58.90;;;;;;5091163;28;20374;-59
2023/07/07 00:36:18;;;;;;;;;;;20.30;58.90;;;;;;5091333;28;19927;-60
2023/07/07 00:38:44;;;;;;;;;;;20.30;58.90;;;;;;5090914;28;20294;-59
2023/07/07 00:41:10;;;;;;;;;;;20.30;58.90;;;;;;5090877;28;20003;-59
2023/07/07 00:43:37;;;;;;;;;;;20.20;58.80;;;;;;5091136;28;20442;-59
2023/07/07 00:46:03;;;;;;;;;;;20.20;58.90;;;;;;5090779;28;19970;-59
2023/07/07 00:48:37;;;;;;;;;;;20.20;58.80;;;;;;5090768;28;19920;-60
2023/07/07 00:51:06;;;;;;;;;;;20.30;58.90;;;;;;5090990;28;19927;-59
2023/07/07 00:53:32;;;;;;;;;;;20.20;58.80;;;;;;5090927;28;19920;-59
2023/07/07 00:55:59;;;;;;;;;;;20.20;58.90;;;;;;5090719;28;19920;-59
2023/07/07 00:58:25;;;;;;;;;;;20.20;58.90;;;;;;5090513;28;19924;-59
2023/07/07 01:00:54;;;;;;;;;;;20.20;58.90;;;;;;5089636;28;19924;-60
2023/07/07 01:03:23;;;;;;;;;;;20.20;58.90;;;;;;5090383;28;19920;-60
2023/07/07 01:05:50;;;;;;;;;;;20.20;58.90;;;;;;5090500;28;20011;-60
2023/07/07 01:08:16;;;;;;;;;;;20.20;59.00;;;;;;5095170;28;19920;-59
2023/07/07 01:10:42;;;;;;;;;;;20.10;58.90;;;;;;5095396;28;20401;-59
2023/07/07 01:13:07;;;;;;;;;;;20.10;58.90;;;;;;5094441;28;20011;-59
2023/07/07 01:15:34;;;;;;;;;;;20.10;58.90;;;;;;5094097;28;19969;-59
2023/07/07 01:18:07;;;;;;;;;;;20.10;58.90;;;;;;5095329;28;20340;-59
2023/07/07 01:20:37;;;;;;;;;;;20.10;59.00;;;;;;5094948;28;20267;-59
2023/07/07 01:28:37;;;;;;;;;;;20.10;59.00;;;;;;5110853;27;19912;-57
2023/07/07 01:31:06;;;;;;;;;;;20.10;59.00;;;;;;5108711;28;19924;-58
2023/07/07 01:33:32;;;;;;;;;;;20.00;59.00;;;;;;5110175;28;19920;-58
2023/07/07 01:35:57;;;;;;;;;;;20.10;59.00;;;;;;5109162;28;19923;-58
2023/07/07 01:38:28;;;;;;;;;;;20.00;59.00;;;;;;5109005;28;20178;-58
2023/07/07 01:40:57;;;;;;;;;;;20.00;59.00;;;;;;5109174;28;19920;-57
2023/07/07 01:43:26;;;;;;;;;;;20.00;59.00;;;;;;5109255;28;20012;-57
2023/07/07 01:45:57;;;;;;;;;;;20.00;59.00;;;;;;5109936;28;19920;-58
2023/07/07 01:48:29;;;;;;;;;;;20.10;59.10;;;;;;5109217;28;19920;-57
2023/07/07 01:50:55;;;;;;;;;;;20.00;59.10;;;;;;5108877;28;20436;-58
2023/07/07 01:53:23;;;;;;;;;;;20.00;59.10;;;;;;5110142;28;20022;-58
2023/07/07 01:55:50;;;;;;;;;;;20.00;59.10;;;;;;5110350;28;19920;-58
2023/07/07 01:58:17;;;;;;;;;;;20.00;59.10;;;;;;5108841;28;19923;-58
2023/07/07 02:00:43;;;;;;;;;;;20.00;59.10;;;;;;5109591;28;19920;-58
2023/07/07 02:03:10;;;;;;;;;;;20.00;59.10;;;;;;5109914;28;20061;-58
2023/07/07 02:05:35;;;;;;;;;;;20.00;59.10;;;;;;5108599;28;19931;-58
2023/07/07 02:08:01;;;;;;;;;;;20.00;59.20;;;;;;5109438;28;19928;-58
2023/07/07 02:10:26;;;;;;;;;;;20.00;59.20;;;;;;5108187;28;19920;-57
2023/07/07 02:12:52;;;;;;;;;;;20.00;59.20;;;;;;5109449;28;19920;-58
2023/07/07 02:15:17;;;;;;;;;;;20.00;59.20;;;;;;5108003;28;19920;-58
2023/07/07 02:17:43;;;;;;;;;;;20.00;59.20;;;;;;5108191;28;20320;-58
2023/07/07 02:20:09;;;;;;;;;;;20.00;59.20;;;;;;5107954;28;19920;-58
2023/07/07 02:22:36;;;;;;;;;;;20.00;59.20;;;;;;5109195;28;19956;-58
2023/07/07 02:25:01;;;;;;;;;;;20.00;59.20;;;;;;5108250;28;19929;-58
2023/07/07 02:27:26;;;;;;;;;;;20.00;59.10;;;;;;5107688;28;19924;-58
2023/07/07 02:29:52;;;;;;;;;;;19.90;59.10;;;;;;5108315;28;19920;-58
2023/07/07 02:32:17;;;;;;;;;;;19.90;59.10;;;;;;5108879;28;20371;-58
2023/07/07 02:34:47;;;;;;;;;;;19.90;59.10;;;;;;5107807;28;19920;-58
2023/07/07 02:37:15;;;;;;;;;;;19.90;59.20;;;;;;5107973;28;19927;-58
2023/07/07 02:39:41;;;;;;;;;;;19.90;59.10;;;;;;5094270;28;19968;-58
2023/07/07 02:42:06;;;;;;;;;;;19.90;59.20;;;;;;5095435;28;19978;-58
2023/07/07 02:44:31;;;;;;;;;;;19.90;59.20;;;;;;5095200;28;20324;-58
2023/07/07 02:46:57;;;;;;;;;;;19.90;59.20;;;;;;5093702;28;19924;-58
2023/07/07 02:49:22;;;;;;;;;;;19.90;59.20;;;;;;5093892;28;19927;-58
2023/07/07 02:51:48;;;;;;;;;;;19.90;59.20;;;;;;5093992;28;20018;-58
2023/07/07 02:54:13;;;;;;;;;;;19.90;59.20;;;;;;5093699;28;20387;-58
2023/07/07 02:56:39;;;;;;;;;;;19.90;59.20;;;;;;5095297;28;20013;-58
2023/07/07 02:59:05;;;;;;;;;;;19.90;59.20;;;;;;5093592;28;20397;-58
2023/07/07 03:01:32;;;;;;;;;;;19.80;59.10;;;;;;5094811;28;19927;-58
2023/07/07 03:03:58;;;;;;;;;;;19.80;59.20;;;;;;5094819;28;19920;-58
2023/07/07 03:06:24;;;;;;;;;;;19.80;59.20;;;;;;5093506;28;20434;-58
2023/07/07 03:08:50;;;;;;;;;;;19.90;59.30;;;;;;5093452;28;20014;-58
2023/07/07 03:11:17;;;;;;;;;;;19.80;59.20;;;;;;5093815;28;20019;-58
2023/07/07 03:13:44;;;;;;;;;;;19.80;59.20;;;;;;5093917;28;20343;-58
2023/07/07 03:16:14;;;;;;;;;;;19.80;59.20;;;;;;5094520;28;19966;-58
2023/07/07 03:18:40;;;;;;;;;;;19.80;59.20;;;;;;5093313;28;19966;-58
2023/07/07 03:21:06;;;;;;;;;;;19.80;59.20;;;;;;5093586;28;19924;-57
2023/07/07 03:23:31;;;;;;;;;;;19.80;59.30;;;;;;5094637;28;20145;-58
2023/07/07 03:26:05;;;;;;;;;;;19.80;59.20;;;;;;5093224;28;20206;-58
2023/07/07 03:28:30;;;;;;;;;;;19.80;59.30;;;;;;5093082;28;19927;-58
2023/07/07 03:30:56;;;;;;;;;;;19.80;59.30;;;;;;5093368;28;20282;-57
2023/07/07 03:33:21;;;;;;;;;;;19.80;59.30;;;;;;5094554;28;19920;-57
2023/07/07 03:35:49;;;;;;;;;;;19.80;59.30;;;;;;5094240;28;20014;-58
2023/07/07 03:38:15;;;;;;;;;;;19.80;59.40;;;;;;5093158;28;19952;-58
2023/07/07 03:40:47;;;;;;;;;;;19.80;59.30;;;;;;5093201;28;20358;-58
2023/07/07 03:43:13;;;;;;;;;;;19.80;59.30;;;;;;5092866;28;19921;-58
2023/07/07 03:45:40;;;;;;;;;;;19.80;59.40;;;;;;5093992;28;19920;-58
2023/07/07 03:48:05;;;;;;;;;;;19.80;59.30;;;;;;5092779;28;19939;-58
2023/07/07 03:50:31;;;;;;;;;;;19.70;59.30;;;;;;5092068;28;19920;-57
2023/07/07 03:52:56;;;;;;;;;;;19.70;59.30;;;;;;5092659;28;19920;-58
2023/07/07 03:55:22;;;;;;;;;;;19.70;59.30;;;;;;5092879;28;19920;-58
2023/07/07 03:57:47;;;;;;;;;;;19.70;59.30;;;;;;5092911;28;20021;-58
2023/07/07 04:00:13;;;;;;;;;;;19.70;59.30;;;;;;5093779;28;19920;-58
2023/07/07 04:02:38;;;;;;;;;;;19.70;59.30;;;;;;5092580;28;19955;-58
2023/07/07 04:05:04;;;;;;;;;;;19.70;59.40;;;;;;5092793;28;20339;-58
2023/07/07 04:07:29;;;;;;;;;;;19.70;59.40;;;;;;5092340;28;19924;-58
2023/07/07 04:09:55;;;;;;;;;;;19.70;59.40;;;;;;5093630;28;19924;-57
2023/07/07 04:12:20;;;;;;;;;;;19.70;59.40;;;;;;5092327;28;20329;-58
2023/07/07 04:14:46;;;;;;;;;;;19.70;59.40;;;;;;5092619;28;20018;-58
2023/07/07 04:17:11;;;;;;;;;;;19.70;59.40;;;;;;5092116;28;19955;-58
2023/07/07 04:19:37;;;;;;;;;;;19.70;59.40;;;;;;5075538;28;19974;-58
2023/07/07 04:22:02;;;;;;;;;;;19.70;59.40;;;;;;5092112;28;19920;-58
2023/07/07 04:24:28;;;;;;;;;;;19.70;59.40;;;;;;5093407;28;19920;-58
2023/07/07 04:26:53;;;;;;;;;;;19.70;59.50;;;;;;5091902;28;20310;-58
2023/07/07 04:29:19;;;;;;;;;;;19.60;59.50;;;;;;5092205;28;20351;-60
2023/07/07 04:31:45;;;;;;;;;;;19.60;59.40;;;;;;5091827;28;19950;-58
2023/07/07 04:34:12;;;;;;;;;;;19.70;59.50;;;;;;5091976;28;19969;-58
2023/07/07 04:36:37;;;;;;;;;;;19.60;59.40;;;;;;5093314;28;20287;-58
2023/07/07 04:39:03;;;;;;;;;;;19.60;59.40;;;;;;5091868;28;19920;-58
2023/07/07 04:41:29;;;;;;;;;;;19.60;59.50;;;;;;5091783;28;19927;-58
2023/07/07 04:43:57;;;;;;;;;;;19.60;59.40;;;;;;5091711;28;20026;-58
2023/07/07 04:46:26;;;;;;;;;;;19.60;59.50;;;;;;5091793;28;19924;-58
2023/07/07 04:48:52;;;;;;;;;;;19.60;59.50;;;;;;5092038;28;19956;-58
2023/07/07 04:51:18;;;;;;;;;;;19.60;59.50;;;;;;5091826;28;19997;-58
2023/07/07 04:53:44;;;;;;;;;;;19.60;59.50;;;;;;5091968;28;20389;-58
2023/07/07 04:56:12;;;;;;;;;;;19.60;59.50;;;;;;5091785;28;20463;-58
2023/07/07 04:58:39;;;;;;;;;;;19.60;59.50;;;;;;5091889;28;19942;-58
2023/07/07 05:01:15;;;;;;;;;;;19.60;59.50;;;;;;5091455;28;20015;-58
2023/07/07 05:03:41;;;;;;;;;;;19.60;59.50;;;;;;5091712;28;20015;-58
2023/07/07 05:06:07;;;;;;;;;;;19.60;59.50;;;;;;5091670;28;20279;-58
2023/07/07 05:08:34;;;;;;;;;;;19.60;59.50;;;;;;5091645;28;19966;-58
2023/07/07 05:11:00;;;;;;;;;;;19.60;59.50;;;;;;5091340;28;20446;-58
2023/07/07 05:13:26;;;;;;;;;;;19.60;59.60;;;;;;5091322;28;20019;-58
2023/07/07 05:16:00;;;;;;;;;;;19.60;59.50;;;;;;5091550;28;19920;-57
2023/07/07 05:18:25;;;;;;;;;;;19.60;59.60;;;;;;5091452;28;19943;-58
2023/07/07 05:20:51;;;;;;;;;;;19.60;59.60;;;;;;5091596;28;19934;-58
2023/07/07 05:23:17;;;;;;;;;;;19.60;59.60;;;;;;5091478;28;19966;-58
2023/07/07 05:25:44;;;;;;;;;;;19.60;59.60;;;;;;5091526;28;20015;-58
2023/07/07 05:28:09;;;;;;;;;;;19.60;59.60;;;;;;5092186;28;19931;-58
2023/07/07 05:30:35;;;;;;;;;;;19.60;59.60;;;;;;5091357;28;19973;-57
2023/07/07 05:33:00;;;;;;;;;;;19.60;59.60;;;;;;5091040;28;20298;-58
2023/07/07 05:35:26;;;;;;;;;;;19.60;59.60;;;;;;5091117;28;19924;-60
2023/07/07 05:37:51;;;;;;;;;;;19.60;59.60;;;;;;5090527;28;19920;-58
2023/07/07 05:40:17;;;;;;;;;;;19.60;59.60;;;;;;5090905;28;20088;-58
2023/07/07 05:42:42;;;;;;;;;;;19.60;59.60;;;;;;5090570;28;19932;-58
2023/07/07 05:45:08;;;;;;;;;;;19.60;59.70;;;;;;5088492;28;19920;-57
2023/07/07 05:47:33;;;;;;;;;;;19.60;59.90;;;;;;5105188;28;19932;-58
2023/07/07 05:49:59;;;;;;;;;;;19.60;60.10;;;;;;5088240;28;19920;-57
2023/07/07 05:52:25;;;;;;;;;;;19.60;60.30;;;;;;5090636;28;20268;-58
2023/07/07 05:54:51;;;;;;;;;;;19.60;60.40;;;;;;5088495;28;19931;-59
2023/07/07 05:57:17;;;;;;;;;;;19.70;60.60;;;;;;5090344;28;19927;-57
2023/07/07 05:59:42;;;;;;;;;;;19.70;60.80;;;;;;5090887;28;20298;-58
2023/07/07 06:02:10;;;;;;;;;;;19.70;61.00;;;;;;5088067;28;19920;-58
2023/07/07 06:04:35;;;;;;;;;;;19.70;60.90;;;;;;5090606;28;19927;-58
2023/07/07 06:07:01;;;;;;;;;;;19.60;60.80;;;;;;5088534;28;19924;-58
2023/07/07 06:09:26;;;;;;;;;;;19.70;60.90;;;;;;5086366;28;20363;-58
2023/07/07 06:11:52;;;;;;;;;;;19.70;60.80;;;;;;5084255;28;19927;-58
2023/07/07 06:14:17;;;;;;;;;;;19.70;60.80;;;;;;5090384;28;19927;-58
2023/07/07 06:16:43;;;;;;;;;;;19.70;60.80;;;;;;5091663;28;20379;-58
2023/07/07 06:19:08;;;;;;;;;;;19.70;60.80;;;;;;5090164;28;19924;-57
2023/07/07 06:21:34;;;;;;;;;;;19.70;61.00;;;;;;5091371;28;19927;-57
2023/07/07 06:23:59;;;;;;;;;;;19.70;61.00;;;;;;5089859;28;19920;-57
2023/07/07 06:26:25;;;;;;;;;;;19.80;60.90;;;;;;5088084;28;19924;-58
2023/07/07 06:28:51;;;;;;;;;;;19.80;61.00;;;;;;5090124;28;20333;-58
2023/07/07 06:31:16;;;;;;;;;;;19.80;61.00;;;;;;5088393;28;19962;-58
2023/07/07 06:33:43;;;;;;;;;;;19.80;61.00;;;;;;5079491;28;19920;-58
2023/07/07 06:36:08;;;;;;;;;;;19.80;61.00;;;;;;5075211;28;19924;-58
2023/07/07 06:38:34;;;;;;;;;;;19.80;61.10;;;;;;5109567;27;20003;-58
2023/07/07 06:40:59;;;;;;;;;;;19.80;61.10;;;;;;5074737;28;19920;-57
2023/07/07 06:43:25;;;;;;;;;;;19.80;61.10;;;;;;5072116;28;19932;-58
2023/07/07 06:45:53;;;;;;;;;;;19.80;61.20;;;;;;5071198;28;20003;-58
2023/07/07 06:48:18;;;;;;;;;;;19.80;61.40;;;;;;5077575;28;19982;-57
2023/07/07 06:50:44;;;;;;;;;;;19.80;61.70;;;;;;5076234;28;19928;-58
2023/07/07 06:53:10;;;;;;;;;;;19.90;61.70;;;;;;5080631;28;20018;-58
2023/07/07 06:55:36;;;;;;;;;;;19.90;61.90;;;;;;5107383;27;19935;-57
2023/07/07 06:58:02;;;;;;;;;;;19.90;62.10;;;;;;5076195;28;19924;-58
2023/07/07 07:00:28;;;;;;;;;;;19.90;62.10;;;;;;5070856;28;20590;-58
2023/07/07 07:02:57;;;;;;;;;;;19.90;62.00;;;;;;5070792;28;20011;-57
2023/07/07 07:05:22;;;;;;;;;;;19.90;61.90;;;;;;5073306;28;19947;-58
2023/07/07 07:07:48;;;;;;;;;;;19.90;62.00;;;;;;5073559;28;19985;-58
2023/07/07 07:10:14;;;;;;;;;;;19.90;62.00;;;;;;5076684;28;20029;-57
2023/07/07 07:12:39;;;;;;;;;;;19.90;62.10;;;;;;5107173;27;20362;-58
2023/07/07 07:15:05;;;;;;;;;;;19.90;62.20;;;;;;5107635;27;20291;-57
2023/07/07 07:17:31;;;;;;;;;;;20.00;62.20;;;;;;5107162;27;19920;-57
2023/07/07 07:19:56;;;;;;;;;;;19.90;62.10;;;;;;5072520;28;19927;-60
2023/07/07 07:22:22;;;;;;;;;;;20.00;62.60;;;;;;5070438;28;20027;-59
2023/07/07 07:24:47;;;;;;;;;;;20.00;62.20;;;;;;5080099;28;19928;-60
2023/07/07 07:27:13;;;;;;;;;;;20.00;62.00;;;;;;5072859;28;19928;-59
2023/07/07 07:29:41;;;;;;;;;;;20.00;62.10;;;;;;5072941;28;20658;-57
2023/07/07 07:32:07;;;;;;;;;;;20.00;61.90;;;;;;5107529;27;19928;-57
2023/07/07 07:34:32;;;;;;;;;;;20.00;62.00;;;;;;5060004;28;20361;-58
2023/07/07 07:36:59;;;;;;;;;;;20.00;62.10;;;;;;5055763;28;20556;-57
2023/07/07 07:39:25;;;;;;;;;;;20.00;62.00;;;;;;5060202;28;19925;-58
2023/07/07 07:41:53;;;;;;;;;;;20.10;62.50;;;;;;5060399;28;20532;-57
2023/07/07 07:44:19;;;;;;;;;;;20.00;62.60;;;;;;5065030;28;19935;-57
2023/07/07 07:46:45;;;;;;;;;;;20.10;62.70;;;;;;5067235;28;19935;-58
2023/07/07 07:49:11;;;;;;;;;;;20.10;62.70;;;;;;5066452;28;19931;-58
2023/07/07 07:51:38;;;;;;;;;;;20.10;62.70;;;;;;5067571;28;19929;-58
2023/07/07 07:54:04;;;;;;;;;;;20.10;62.80;;;;;;5084115;28;19924;-58
2023/07/07 07:56:30;;;;;;;;;;;20.10;62.70;;;;;;5068951;28;19943;-58
2023/07/07 07:58:55;;;;;;;;;;;20.10;62.70;;;;;;5067324;28;20387;-58
2023/07/07 08:01:21;;;;;;;;;;;20.20;62.50;;;;;;5067921;28;19973;-58
2023/07/07 08:03:46;;;;;;;;;;;20.20;62.70;;;;;;5067261;28;20355;-57
2023/07/07 08:06:12;;;;;;;;;;;20.20;62.50;;;;;;5071396;28;20458;-58
2023/07/07 08:08:37;;;;;;;;;;;20.20;62.50;;;;;;5083423;28;20015;-58
2023/07/07 08:11:03;;;;;;;;;;;20.20;62.50;;;;;;5070363;28;19970;-59
2023/07/07 08:13:28;;;;;;;;;;;20.20;62.30;;;;;;5072001;28;19932;-59
2023/07/07 08:15:54;;;;;;;;;;;20.20;62.40;;;;;;5067143;28;19986;-59
2023/07/07 08:18:19;;;;;;;;;;;20.20;62.40;;;;;;5071623;28;19920;-59
2023/07/07 08:20:45;;;;;;;;;;;20.30;62.40;;;;;;5095002;27;19935;-59
2023/07/07 08:23:10;;;;;;;;;;;20.30;62.40;;;;;;5064535;28;19927;-58
2023/07/07 08:25:36;;;;;;;;;;;20.30;62.40;;;;;;5071236;28;20082;-58
2023/07/07 08:28:01;;;;;;;;;;;20.30;62.40;;;;;;5069645;28;19932;-58
2023/07/07 08:30:27;;;;;;;;;;;20.40;62.50;;;;;;5070633;28;19986;-58
2023/07/07 08:32:53;;;;;;;;;;;20.40;62.50;;;;;;5070503;28;19970;-60
2023/07/07 08:35:19;;;;;;;;;;;20.40;62.10;;;;;;5070940;28;19924;-57
2023/07/07 08:37:44;;;;;;;;;;;20.40;62.10;;;;;;5071216;28;19920;-57
2023/07/07 08:40:15;;;;;;;;;;;20.40;61.90;;;;;;5070335;28;20318;-58
2023/07/07 08:42:40;;;;;;;;;;;20.40;61.80;;;;;;5070592;28;20023;-57
2023/07/07 08:45:12;;;;;;;;;;;20.50;61.70;;;;;;5071633;28;20019;-58
2023/07/07 08:47:57;;;;;;;;;;;20.40;61.60;;;;;;5054774;28;19982;-57
2023/07/07 08:53:20;;;;;;;;;;;20.50;61.30;;;;;;5088979;27;19916;-58
2023/07/07 08:55:50;;;;;;;;;;;20.60;61.10;;;;;;5086518;28;19924;-57
2023/07/07 08:58:27;;;;;;;;;;;20.60;61.10;;;;;;5084446;28;19932;-58
2023/07/07 09:01:13;;;;;;;;;;;20.70;61.10;;;;;;5091773;28;20384;-58
2023/07/07 09:03:48;;;;;;;;;;;20.70;61.00;;;;;;5084664;28;20290;-58
2023/07/07 09:09:02;;;;;;;;;;;20.90;60.90;;;;;;5085302;27;19926;-58
2023/07/07 09:11:35;;;;;;;;;;;21.00;60.80;;;;;;5078663;28;19955;-58
2023/07/07 09:14:00;;;;;;;;;;;21.00;60.60;;;;;;5087851;28;20006;-58
2023/07/07 09:19:09;;;;;;;;;;;21.00;60.60;;;;;;5075458;27;19921;-59
2023/07/07 09:21:54;;;;;;;;;;;21.10;60.50;;;;;;5081097;28;20031;-57
2023/07/07 09:27:07;;;;;;;;;;;21.20;60.60;;;;;;5083611;27;19961;-57
2023/07/07 09:29:33;;;;;;;;;;;21.20;60.40;;;;;;5079673;28;19978;-57
2023/07/07 09:32:02;;;;;;;;;;;21.30;60.50;;;;;;5082515;28;19927;-57
2023/07/07 09:34:28;;;;;;;;;;;21.30;60.60;;;;;;5086994;28;19925;-58
2023/07/07 09:37:14;;;;;;;;;;;21.30;60.50;;;;;;5081962;28;20002;-57
2023/07/07 09:39:59;;;;;;;;;;;21.40;60.50;;;;;;5089248;28;19925;-58
2023/07/07 09:42:36;;;;;;;;;;;21.50;60.40;;;;;;5088716;28;19935;-57
2023/07/07 09:45:11;;;;;;;;;;;21.50;60.30;;;;;;5084423;28;19928;-57
2023/07/07 09:47:46;;;;;;;;;;;21.60;60.20;;;;;;5089208;28;20323;-57
2023/07/07 09:50:17;;;;;;;;;;;21.60;60.90;;;;;;5087392;28;19935;-57
2023/07/07 09:52:48;;;;;;;;;;;21.70;60.20;;;;;;5083583;28;19924;-58
2023/07/07 09:55:17;;;;;;;;;;;21.80;60.20;;;;;;5083939;28;19974;-57
2023/07/07 09:58:02;;;;;;;;;;;21.80;60.80;;;;;;5085181;28;19986;-56
2023/07/07 10:00:29;;;;;;;;;;;21.70;59.80;;;;;;5091032;28;19931;-57
2023/07/07 10:02:56;;;;;;;;;;;21.80;59.70;;;;;;5085239;28;19920;-57
2023/07/07 10:05:24;;;;;;;;;;;21.80;59.50;;;;;;5082532;28;19960;-58
2023/07/07 10:07:51;;;;;;;;;;;21.80;59.60;;;;;;5086163;28;19925;-62
2023/07/07 10:10:17;;;;;;;;;;;21.80;59.60;;;;;;5087770;28;19924;-58
2023/07/07 10:12:44;;;;;;;;;;;21.80;59.50;;;;;;5090418;28;20295;-59
2023/07/07 10:15:30;;;;;;;;;;;21.80;59.30;;;;;;5082224;28;19966;-58
2023/07/07 10:18:03;;;;;;;;;;;21.90;59.40;;;;;;5087833;28;19967;-57
2023/07/07 10:20:29;;;;;;;;;;;21.90;59.40;;;;;;5090251;28;19921;-57
2023/07/07 10:22:55;;;;;;;;;;;21.90;59.20;;;;;;5083694;28;19928;-57
2023/07/07 10:25:21;;;;;;;;;;;21.90;58.80;;;;;;5089489;28;20013;-57
2023/07/07 10:27:48;;;;;;;;;;;21.90;58.50;;;;;;5107943;28;19928;-57
2023/07/07 10:30:13;;;;;;;;;;;22.00;57.90;;;;;;5085594;28;19935;-57
2023/07/07 10:32:39;;;;;;;;;;;21.90;57.40;;;;;;5091608;28;19928;-57
2023/07/07 10:35:05;;;;;;;;;;;21.90;56.80;;;;;;5084239;28;20007;-57
2023/07/07 10:37:32;;;;;;;;;;;21.90;56.60;;;;;;5077534;28;20272;-57
2023/07/07 10:39:59;;;;;;;;;;;22.00;56.50;;;;;;5076142;28;20372;-57
2023/07/07 10:42:26;;;;;;;;;;;21.90;56.20;;;;;;5083971;28;19928;-57
2023/07/07 10:44:52;;;;;;;;;;;22.00;56.00;;;;;;5077132;28;20492;-58
2023/07/07 10:47:19;;;;;;;;;;;22.00;56.00;;;;;;5069007;28;20425;-59
2023/07/07 10:49:45;;;;;;;;;;;21.90;56.20;;;;;;5063900;28;20018;-58
2023/07/07 10:52:19;;;;;;;;;;;22.00;56.50;;;;;;5072525;28;20098;-59
2023/07/07 10:54:54;;;;;;;;;;;22.00;56.80;;;;;;5073498;28;19928;-59
2023/07/07 10:57:24;;;;;;;;;;;22.00;57.20;;;;;;5071125;28;20539;-60
2023/07/07 11:00:10;;;;;;;;;;;22.00;57.60;;;;;;5070697;28;19926;-58
2023/07/07 11:05:42;;;;;;;;;;;22.00;58.00;;;;;;5066896;27;20445;-57
2023/07/07 11:08:17;;;;;;;;;;;22.10;58.20;;;;;;5066307;28;19925;-58
2023/07/07 11:16:20;;;;;;;;;;;22.10;58.50;;;;;;5088274;27;19920;-58
2023/07/07 11:21:37;;;;;;;;;;;22.10;58.70;;;;;;5083866;27;20299;-58
2023/07/07 11:24:22;;;;;;;;;;;22.10;58.90;;;;;;5086643;28;19946;-58
2023/07/07 11:27:07;;;;;;;;;;;22.10;59.00;;;;;;5117609;27;19927;-58
2023/07/07 11:29:53;;;;;;;;;;;22.10;59.10;;;;;;5086417;28;19920;-58
2023/07/07 11:32:38;;;;;;;;;;;22.10;59.20;;;;;;5091424;28;19928;-58
2023/07/07 11:35:17;;;;;;;;;;;22.10;59.20;;;;;;5115949;27;20031;-63
2023/07/07 11:37:56;;;;;;;;;;;22.10;59.10;;;;;;5091762;28;19963;-58
2023/07/07 11:40:28;;;;;;;;;;;22.10;58.90;;;;;;5118093;27;20279;-59
2023/07/07 11:43:14;;;;;;;;;;;22.20;58.70;;;;;;5083077;28;20023;-58
2023/07/07 11:48:33;;;;;;;;;;;22.30;58.00;;;;;;5091921;27;19924;-59
2023/07/07 11:59:09;;;;;;;;;;;22.40;57.40;;;;;;5065427;27;1866003;-64
2023/07/07 12:01:39;;;;;;;;;;;22.40;56.90;;;;;;5101136;27;19976;-59
2023/07/07 12:04:13;;;;;;;;;;;22.50;56.70;;;;;;5099042;28;19981;-60
2023/07/07 12:06:46;;;;;;;;;;;22.50;56.50;;;;;;5099176;27;19924;-58
2023/07/07 12:09:22;;;;;;;;;;;22.50;56.00;;;;;;5101009;28;20390;-59
2023/07/07 12:11:50;;;;;;;;;;;22.60;55.90;;;;;;5097638;27;19938;-60
2023/07/07 12:16:57;;;;;;;;;;;22.60;55.90;;;;;;5084034;27;20314;-58
2023/07/07 12:19:31;;;;;;;;;;;22.60;55.40;;;;;;5083767;28;20295;-58
2023/07/07 12:21:58;;;;;;;;;;;22.70;55.60;;;;;;5088333;28;19925;-58
2023/07/07 12:27:10;;;;;;;;;;;22.60;55.70;;;;;;5090274;27;20150;-58
2023/07/07 12:29:38;;;;;;;;;;;22.60;55.80;;;;;;5073861;28;19924;-59
2023/07/07 12:32:03;;;;;;;;;;;22.60;56.10;;;;;;5077587;28;19936;-58
2023/07/07 12:37:18;;;;;;;;;;;22.60;56.10;;;;;;5073496;27;19945;-59
2023/07/07 12:40:00;;;;;;;;;;;22.60;56.00;;;;;;5058473;28;19924;-59
2023/07/07 12:42:28;;;;;;;;;;;22.60;56.30;;;;;;5054803;28;19937;-58
2023/07/07 12:44:55;;;;;;;;;;;22.60;56.50;;;;;;5050113;28;20388;-59
2023/07/07 12:47:31;;;;;;;;;;;22.60;56.70;;;;;;5052709;28;20089;-59
2023/07/07 12:49:58;;;;;;;;;;;22.60;56.60;;;;;;5048867;28;19925;-60
2023/07/07 12:52:25;;;;;;;;;;;22.60;56.60;;;;;;5052445;28;19964;-60
2023/07/07 12:54:52;;;;;;;;;;;22.60;56.20;;;;;;5056241;28;19924;-59
2023/07/07 13:00:18;;;;;;;;;;;22.60;56.20;;;;;;5089429;27;20504;-60
2023/07/07 13:03:04;;;;;;;;;;;22.60;55.90;;;;;;5070978;28;19924;-60
2023/07/07 13:05:33;;;;;;;;;;;22.70;55.80;;;;;;5075671;28;20007;-60
2023/07/07 13:07:59;;;;;;;;;;;22.70;55.70;;;;;;5102284;27;19921;-61
2023/07/07 13:13:24;;;;;;;;;;;22.80;55.10;;;;;;5094303;27;19920;-60
2023/07/07 13:15:49;;;;;;;;;;;22.80;54.80;;;;;;5069426;28;19928;-58
2023/07/07 13:18:16;;;;;;;;;;;22.80;54.30;;;;;;5065894;28;19958;-59
2023/07/07 13:20:43;;;;;;;;;;;22.90;54.30;;;;;;5071911;28;19925;-59
2023/07/07 13:23:15;;;;;;;;;;;22.90;54.20;;;;;;5092414;28;19920;-60
2023/07/07 13:25:45;;;;;;;;;;;23.00;53.90;;;;;;5091650;28;20364;-60
2023/07/07 13:28:11;;;;;;;;;;;23.00;53.80;;;;;;5075526;28;19924;-59
2023/07/07 13:30:39;;;;;;;;;;;23.00;53.00;;;;;;5089653;28;19927;-62
2023/07/07 13:33:06;;;;;;;;;;;23.00;53.00;;;;;;5082529;28;20363;-59
2023/07/07 13:35:32;;;;;;;;;;;23.00;53.10;;;;;;5062295;28;20367;-58
2023/07/07 13:38:07;;;;;;;;;;;23.00;53.50;;;;;;5093633;28;19939;-59
2023/07/07 13:40:34;;;;;;;;;;;23.10;53.40;;;;;;5068540;28;19921;-59
2023/07/07 13:43:00;;;;;;;;;;;23.20;53.00;;;;;;5065684;28;19932;-60
2023/07/07 13:45:25;;;;;;;;;;;23.20;52.90;;;;;;5075253;28;19921;-60
2023/07/07 13:47:53;;;;;;;;;;;23.20;52.80;;;;;;5058098;28;19989;-60
2023/07/07 13:50:21;;;;;;;;;;;23.20;52.40;;;;;;5078109;28;20023;-60
2023/07/07 13:52:48;;;;;;;;;;;23.20;52.10;;;;;;5066606;28;20447;-58
2023/07/07 13:55:14;;;;;;;;;;;23.20;52.00;;;;;;5083023;28;20331;-59
2023/07/07 13:57:41;;;;;;;;;;;23.30;52.50;;;;;;5091317;28;19928;-60
2023/07/07 14:00:07;;;;;;;;;;;23.30;52.80;;;;;;5080186;28;20558;-60
2023/07/07 14:02:34;;;;;;;;;;;23.30;53.40;;;;;;5082384;28;19924;-59
2023/07/07 14:05:04;;;;;;;;;;;23.30;52.60;;;;;;5070349;28;19920;-60
2023/07/07 14:07:34;;;;;;;;;;;23.30;52.60;;;;;;5080496;28;19921;-59
2023/07/07 14:10:00;;;;;;;;;;;23.40;52.30;;;;;;5085542;28;20290;-59
2023/07/07 14:12:27;;;;;;;;;;;23.30;52.20;;;;;;5085494;28;19924;-59
2023/07/07 14:14:57;;;;;;;;;;;23.30;52.30;;;;;;5071231;28;20002;-59
2023/07/07 14:17:26;;;;;;;;;;;23.20;52.30;;;;;;5060639;28;19948;-58
2023/07/07 14:22:40;;;;;;;;;;;23.10;52.50;;;;;;5114940;27;20400;-58
2023/07/07 14:25:06;;;;;;;;;;;23.10;52.60;;;;;;5087514;28;19963;-58
2023/07/07 14:27:32;;;;;;;;;;;23.00;52.70;;;;;;5073959;28;20276;-59
2023/07/07 14:29:57;;;;;;;;;;;23.00;52.80;;;;;;5067543;28;19927;-59
2023/07/07 14:32:29;;;;;;;;;;;23.00;52.90;;;;;;5068084;28;19999;-58
2023/07/07 14:34:58;;;;;;;;;;;23.00;53.10;;;;;;5068299;28;20283;-59
2023/07/07 14:37:30;;;;;;;;;;;22.90;53.10;;;;;;5067393;28;19921;-58
2023/07/07 14:39:59;;;;;;;;;;;23.00;53.20;;;;;;5068417;28;19927;-58
2023/07/07 14:42:26;;;;;;;;;;;22.90;53.30;;;;;;5068736;28;19932;-58
2023/07/07 14:44:52;;;;;;;;;;;22.90;53.40;;;;;;5067925;28;19921;-58
2023/07/07 14:50:03;;;;;;;;;;;22.90;53.50;;;;;;5109603;27;19912;-58
2023/07/07 14:52:31;;;;;;;;;;;22.80;53.50;;;;;;5108467;28;19965;-58
2023/07/07 14:55:01;;;;;;;;;;;22.90;53.70;;;;;;5108497;28;19920;-58
2023/07/07 14:57:27;;;;;;;;;;;22.90;53.70;;;;;;5108323;28;19926;-59
2023/07/07 14:59:53;;;;;;;;;;;22.80;53.80;;;;;;5107815;28;19950;-59
2023/07/07 15:02:27;;;;;;;;;;;22.80;53.80;;;;;;5108748;28;19920;-58
2023/07/07 15:04:53;;;;;;;;;;;22.80;53.90;;;;;;5108095;28;19927;-59
2023/07/07 15:07:23;;;;;;;;;;;22.80;53.90;;;;;;5108813;28;19928;-59
2023/07/07 15:09:49;;;;;;;;;;;22.80;54.00;;;;;;5094664;28;19925;-58
2023/07/07 15:12:15;;;;;;;;;;;22.80;54.00;;;;;;5121893;28;19928;-59
2023/07/07 15:14:40;;;;;;;;;;;22.80;54.10;;;;;;5088104;28;19920;-59
2023/07/07 15:17:07;;;;;;;;;;;22.80;54.10;;;;;;5122419;28;19920;-59
2023/07/07 15:19:33;;;;;;;;;;;22.80;54.10;;;;;;5089378;28;19920;-59